sensor_id;sensor_type;location;lat;lon;timestamp;P1;durP1;ratioP1;P2;durP2;ratioP2
56343;SDS011;42245;42.058;24.700;2023-12-07T00:01:04;15.23;;;9.23;;
56343;SDS011;42245;42.058;24.700;2023-12-07T00:03:30;14.67;;;8.93;;
56343;SDS011;42245;42.058;24.700;2023-12-07T00:05:56;13.93;;;7.93;;
56343;SDS011;42245;42.058;24.700;2023-12-07T00:08:21;16.40;;;8.43;;
56343;SDS011;42245;42.058;24.700;2023-12-07T00:10:47;12.77;;;8.20;;
56343;SDS011;42245;42.058;24.700;2023-12-07T00:13:12;13.17;;;8.00;;
56343;SDS011;42245;42.058;24.700;2023-12-07T00:15:38;14.53;;;7.60;;
56343;SDS011;42245;42.058;24.700;2023-12-07T00:18:03;14.47;;;8.47;;
56343;SDS011;42245;42.058;24.700;2023-12-07T00:20:29;13.93;;;8.40;;
56343;SDS011;42245;42.058;24.700;2023-12-07T00:22:54;13.87;;;8.17;;
56343;SDS011;42245;42.058;24.700;2023-12-07T00:25:23;12.43;;;7.73;;
56343;SDS011;42245;42.058;24.700;2023-12-07T00:27:48;12.53;;;8.20;;
56343;SDS011;42245;42.058;24.700;2023-12-07T00:30:14;11.60;;;7.13;;
56343;SDS011;42245;42.058;24.700;2023-12-07T00:32:40;13.00;;;7.67;;
56343;SDS011;42245;42.058;24.700;2023-12-07T00:35:08;12.07;;;7.23;;
56343;SDS011;42245;42.058;24.700;2023-12-07T00:37:34;12.27;;;7.63;;
56343;SDS011;42245;42.058;24.700;2023-12-07T00:40:00;10.73;;;7.10;;
56343;SDS011;42245;42.058;24.700;2023-12-07T00:42:26;11.57;;;7.70;;
56343;SDS011;42245;42.058;24.700;2023-12-07T00:44:52;11.57;;;7.47;;
56343;SDS011;42245;42.058;24.700;2023-12-07T00:47:18;10.70;;;6.90;;
56343;SDS011;42245;42.058;24.700;2023-12-07T00:49:43;11.50;;;6.80;;
56343;SDS011;42245;42.058;24.700;2023-12-07T00:52:08;10.70;;;7.37;;
56343;SDS011;42245;42.058;24.700;2023-12-07T00:54:34;11.43;;;7.20;;
56343;SDS011;42245;42.058;24.700;2023-12-07T00:57:00;11.97;;;7.20;;
56343;SDS011;42245;42.058;24.700;2023-12-07T00:59:25;11.07;;;6.83;;
56343;SDS011;42245;42.058;24.700;2023-12-07T01:01:50;11.17;;;7.30;;
56343;SDS011;42245;42.058;24.700;2023-12-07T01:04:16;9.83;;;7.00;;
56343;SDS011;42245;42.058;24.700;2023-12-07T01:06:42;9.87;;;6.60;;
56343;SDS011;42245;42.058;24.700;2023-12-07T01:09:08;9.43;;;6.80;;
56343;SDS011;42245;42.058;24.700;2023-12-07T01:11:38;11.37;;;6.20;;
56343;SDS011;42245;42.058;24.700;2023-12-07T01:14:07;9.40;;;5.77;;
56343;SDS011;42245;42.058;24.700;2023-12-07T01:16:32;12.93;;;6.57;;
56343;SDS011;42245;42.058;24.700;2023-12-07T01:18:58;13.17;;;6.67;;
56343;SDS011;42245;42.058;24.700;2023-12-07T01:21:23;10.53;;;6.30;;
56343;SDS011;42245;42.058;24.700;2023-12-07T01:23:49;10.13;;;5.63;;
56343;SDS011;42245;42.058;24.700;2023-12-07T01:26:14;7.73;;;5.47;;
56343;SDS011;42245;42.058;24.700;2023-12-07T01:28:40;9.03;;;5.67;;
56343;SDS011;42245;42.058;24.700;2023-12-07T01:31:05;9.50;;;5.70;;
56343;SDS011;42245;42.058;24.700;2023-12-07T01:33:31;8.07;;;5.60;;
56343;SDS011;42245;42.058;24.700;2023-12-07T01:35:56;12.93;;;6.47;;
56343;SDS011;42245;42.058;24.700;2023-12-07T01:38:22;10.17;;;5.90;;
56343;SDS011;42245;42.058;24.700;2023-12-07T01:40:47;10.90;;;6.20;;
56343;SDS011;42245;42.058;24.700;2023-12-07T01:43:13;12.13;;;5.87;;
56343;SDS011;42245;42.058;24.700;2023-12-07T01:45:39;9.27;;;6.07;;
56343;SDS011;42245;42.058;24.700;2023-12-07T01:48:04;8.63;;;5.93;;
56343;SDS011;42245;42.058;24.700;2023-12-07T01:50:30;9.17;;;5.97;;
56343;SDS011;42245;42.058;24.700;2023-12-07T01:53:00;8.73;;;5.53;;
56343;SDS011;42245;42.058;24.700;2023-12-07T01:55:26;11.27;;;6.50;;
56343;SDS011;42245;42.058;24.700;2023-12-07T01:57:52;12.10;;;5.90;;
56343;SDS011;42245;42.058;24.700;2023-12-07T02:00:18;11.73;;;6.03;;
56343;SDS011;42245;42.058;24.700;2023-12-07T02:02:44;8.47;;;5.97;;
56343;SDS011;42245;42.058;24.700;2023-12-07T02:05:11;12.67;;;6.40;;
56343;SDS011;42245;42.058;24.700;2023-12-07T02:07:37;9.03;;;6.23;;
56343;SDS011;42245;42.058;24.700;2023-12-07T02:10:06;10.60;;;5.93;;
56343;SDS011;42245;42.058;24.700;2023-12-07T02:12:31;11.40;;;6.63;;
56343;SDS011;42245;42.058;24.700;2023-12-07T02:14:57;10.17;;;6.60;;
56343;SDS011;42245;42.058;24.700;2023-12-07T02:17:33;8.90;;;6.00;;
56343;SDS011;42245;42.058;24.700;2023-12-07T02:20:05;10.73;;;7.00;;
56343;SDS011;42245;42.058;24.700;2023-12-07T02:23:00;12.40;;;7.07;;
56343;SDS011;42245;42.058;24.700;2023-12-07T02:25:31;11.43;;;7.23;;
56343;SDS011;42245;42.058;24.700;2023-12-07T02:28:01;10.90;;;7.10;;
56343;SDS011;42245;42.058;24.700;2023-12-07T02:30:27;12.57;;;7.17;;
56343;SDS011;42245;42.058;24.700;2023-12-07T02:32:52;11.57;;;6.40;;
56343;SDS011;42245;42.058;24.700;2023-12-07T02:35:18;10.47;;;6.97;;
56343;SDS011;42245;42.058;24.700;2023-12-07T02:37:49;11.43;;;7.60;;
56343;SDS011;42245;42.058;24.700;2023-12-07T02:40:21;12.00;;;7.13;;
56343;SDS011;42245;42.058;24.700;2023-12-07T02:42:47;11.40;;;7.23;;
56343;SDS011;42245;42.058;24.700;2023-12-07T02:45:13;12.87;;;7.47;;
56343;SDS011;42245;42.058;24.700;2023-12-07T02:47:39;11.27;;;6.77;;
56343;SDS011;42245;42.058;24.700;2023-12-07T02:50:06;11.33;;;7.00;;
56343;SDS011;42245;42.058;24.700;2023-12-07T02:52:33;13.60;;;7.30;;
56343;SDS011;42245;42.058;24.700;2023-12-07T02:54:59;9.93;;;6.20;;
56343;SDS011;42245;42.058;24.700;2023-12-07T02:57:24;9.93;;;6.57;;
56343;SDS011;42245;42.058;24.700;2023-12-07T02:59:50;10.73;;;6.47;;
56343;SDS011;42245;42.058;24.700;2023-12-07T03:02:15;9.20;;;5.90;;
56343;SDS011;42245;42.058;24.700;2023-12-07T03:04:40;10.60;;;6.10;;
56343;SDS011;42245;42.058;24.700;2023-12-07T03:07:06;10.20;;;6.63;;
56343;SDS011;42245;42.058;24.700;2023-12-07T03:09:32;10.97;;;6.27;;
56343;SDS011;42245;42.058;24.700;2023-12-07T03:11:57;9.07;;;6.10;;
56343;SDS011;42245;42.058;24.700;2023-12-07T03:14:22;9.40;;;5.70;;
56343;SDS011;42245;42.058;24.700;2023-12-07T03:16:48;8.93;;;5.97;;
56343;SDS011;42245;42.058;24.700;2023-12-07T03:19:14;8.73;;;5.67;;
56343;SDS011;42245;42.058;24.700;2023-12-07T03:21:39;9.63;;;5.73;;
56343;SDS011;42245;42.058;24.700;2023-12-07T03:24:09;8.27;;;5.60;;
56343;SDS011;42245;42.058;24.700;2023-12-07T03:26:35;8.10;;;5.60;;
56343;SDS011;42245;42.058;24.700;2023-12-07T03:29:00;8.23;;;5.70;;
56343;SDS011;42245;42.058;24.700;2023-12-07T03:31:26;7.10;;;4.97;;
56343;SDS011;42245;42.058;24.700;2023-12-07T03:33:52;6.80;;;4.83;;
56343;SDS011;42245;42.058;24.700;2023-12-07T03:36:18;9.00;;;5.37;;
56343;SDS011;42245;42.058;24.700;2023-12-07T03:38:44;8.47;;;4.97;;
56343;SDS011;42245;42.058;24.700;2023-12-07T03:41:09;8.83;;;5.57;;
56343;SDS011;42245;42.058;24.700;2023-12-07T03:43:34;10.00;;;5.53;;
56343;SDS011;42245;42.058;24.700;2023-12-07T03:46:03;8.30;;;5.37;;
56343;SDS011;42245;42.058;24.700;2023-12-07T03:48:29;9.07;;;5.87;;
56343;SDS011;42245;42.058;24.700;2023-12-07T03:50:54;10.97;;;5.83;;
56343;SDS011;42245;42.058;24.700;2023-12-07T03:53:20;8.53;;;5.60;;
56343;SDS011;42245;42.058;24.700;2023-12-07T03:55:45;10.93;;;6.20;;
56343;SDS011;42245;42.058;24.700;2023-12-07T03:58:11;9.10;;;6.30;;
56343;SDS011;42245;42.058;24.700;2023-12-07T04:00:38;7.63;;;5.53;;
56343;SDS011;42245;42.058;24.700;2023-12-07T04:03:03;10.47;;;5.83;;
56343;SDS011;42245;42.058;24.700;2023-12-07T04:05:29;8.57;;;5.90;;
56343;SDS011;42245;42.058;24.700;2023-12-07T04:07:54;9.70;;;5.77;;
56343;SDS011;42245;42.058;24.700;2023-12-07T04:10:20;7.97;;;5.57;;
56343;SDS011;42245;42.058;24.700;2023-12-07T04:12:45;9.77;;;5.90;;
56343;SDS011;42245;42.058;24.700;2023-12-07T04:15:11;8.60;;;5.53;;
56343;SDS011;42245;42.058;24.700;2023-12-07T04:17:36;9.40;;;5.90;;
56343;SDS011;42245;42.058;24.700;2023-12-07T04:20:02;10.30;;;5.80;;
56343;SDS011;42245;42.058;24.700;2023-12-07T04:22:28;10.23;;;6.00;;
56343;SDS011;42245;42.058;24.700;2023-12-07T04:24:54;8.83;;;5.90;;
56343;SDS011;42245;42.058;24.700;2023-12-07T04:27:19;8.87;;;5.67;;
56343;SDS011;42245;42.058;24.700;2023-12-07T04:29:45;8.83;;;5.97;;
56343;SDS011;42245;42.058;24.700;2023-12-07T04:32:10;7.83;;;5.47;;
56343;SDS011;42245;42.058;24.700;2023-12-07T04:34:36;9.67;;;5.70;;
56343;SDS011;42245;42.058;24.700;2023-12-07T04:37:01;9.60;;;6.20;;
56343;SDS011;42245;42.058;24.700;2023-12-07T04:39:27;12.00;;;5.70;;
56343;SDS011;42245;42.058;24.700;2023-12-07T04:41:53;9.63;;;6.40;;
56343;SDS011;42245;42.058;24.700;2023-12-07T04:44:19;12.93;;;6.50;;
56343;SDS011;42245;42.058;24.700;2023-12-07T04:46:44;9.73;;;6.30;;
56343;SDS011;42245;42.058;24.700;2023-12-07T04:49:10;11.13;;;6.57;;
56343;SDS011;42245;42.058;24.700;2023-12-07T04:51:35;13.43;;;6.43;;
56343;SDS011;42245;42.058;24.700;2023-12-07T04:54:01;12.20;;;6.90;;
56343;SDS011;42245;42.058;24.700;2023-12-07T04:56:27;10.40;;;6.30;;
56343;SDS011;42245;42.058;24.700;2023-12-07T04:58:52;9.03;;;5.93;;
56343;SDS011;42245;42.058;24.700;2023-12-07T05:01:18;10.70;;;5.87;;
56343;SDS011;42245;42.058;24.700;2023-12-07T05:03:46;8.93;;;6.10;;
56343;SDS011;42245;42.058;24.700;2023-12-07T05:06:12;10.03;;;5.80;;
56343;SDS011;42245;42.058;24.700;2023-12-07T05:08:39;10.73;;;6.60;;
56343;SDS011;42245;42.058;24.700;2023-12-07T05:11:04;9.43;;;6.40;;
56343;SDS011;42245;42.058;24.700;2023-12-07T05:13:31;9.00;;;5.70;;
56343;SDS011;42245;42.058;24.700;2023-12-07T05:15:58;10.63;;;6.57;;
56343;SDS011;42245;42.058;24.700;2023-12-07T05:18:24;9.50;;;5.67;;
56343;SDS011;42245;42.058;24.700;2023-12-07T05:20:50;13.70;;;6.47;;
56343;SDS011;42245;42.058;24.700;2023-12-07T05:23:15;9.77;;;6.10;;
56343;SDS011;42245;42.058;24.700;2023-12-07T05:25:41;9.50;;;5.73;;
56343;SDS011;42245;42.058;24.700;2023-12-07T05:28:06;9.23;;;5.10;;
56343;SDS011;42245;42.058;24.700;2023-12-07T05:30:32;9.43;;;5.73;;
56343;SDS011;42245;42.058;24.700;2023-12-07T05:32:57;10.63;;;6.57;;
56343;SDS011;42245;42.058;24.700;2023-12-07T05:35:23;9.53;;;6.47;;
56343;SDS011;42245;42.058;24.700;2023-12-07T05:37:48;11.63;;;6.73;;
56343;SDS011;42245;42.058;24.700;2023-12-07T05:40:14;12.40;;;7.80;;
56343;SDS011;42245;42.058;24.700;2023-12-07T05:42:41;12.43;;;7.80;;
56343;SDS011;42245;42.058;24.700;2023-12-07T05:45:06;12.80;;;6.63;;
56343;SDS011;42245;42.058;24.700;2023-12-07T05:47:32;10.67;;;6.43;;
56343;SDS011;42245;42.058;24.700;2023-12-07T05:49:58;16.80;;;6.83;;
56343;SDS011;42245;42.058;24.700;2023-12-07T05:52:25;12.43;;;7.10;;
56343;SDS011;42245;42.058;24.700;2023-12-07T05:54:50;15.93;;;8.70;;
56343;SDS011;42245;42.058;24.700;2023-12-07T05:57:16;14.70;;;8.73;;
56343;SDS011;42245;42.058;24.700;2023-12-07T05:59:41;13.77;;;8.07;;
56343;SDS011;42245;42.058;24.700;2023-12-07T06:02:08;15.03;;;8.47;;
56343;SDS011;42245;42.058;24.700;2023-12-07T06:04:34;14.23;;;7.73;;
56343;SDS011;42245;42.058;24.700;2023-12-07T06:06:59;12.20;;;7.10;;
56343;SDS011;42245;42.058;24.700;2023-12-07T06:09:25;13.33;;;8.10;;
56343;SDS011;42245;42.058;24.700;2023-12-07T06:11:50;15.13;;;8.50;;
56343;SDS011;42245;42.058;24.700;2023-12-07T06:14:16;15.63;;;9.27;;
56343;SDS011;42245;42.058;24.700;2023-12-07T06:16:42;16.07;;;9.13;;
56343;SDS011;42245;42.058;24.700;2023-12-07T06:19:07;16.33;;;8.77;;
56343;SDS011;42245;42.058;24.700;2023-12-07T06:21:33;15.40;;;9.10;;
56343;SDS011;42245;42.058;24.700;2023-12-07T06:23:58;13.57;;;8.27;;
56343;SDS011;42245;42.058;24.700;2023-12-07T06:26:24;13.37;;;8.00;;
56343;SDS011;42245;42.058;24.700;2023-12-07T06:28:50;13.43;;;8.27;;
56343;SDS011;42245;42.058;24.700;2023-12-07T06:31:16;15.10;;;8.83;;
56343;SDS011;42245;42.058;24.700;2023-12-07T06:33:44;16.80;;;8.67;;
56343;SDS011;42245;42.058;24.700;2023-12-07T06:36:10;16.57;;;8.37;;
56343;SDS011;42245;42.058;24.700;2023-12-07T06:38:36;13.37;;;8.00;;
56343;SDS011;42245;42.058;24.700;2023-12-07T06:41:01;14.93;;;8.33;;
56343;SDS011;42245;42.058;24.700;2023-12-07T06:43:27;12.37;;;7.93;;
56343;SDS011;42245;42.058;24.700;2023-12-07T06:45:52;12.03;;;6.40;;
56343;SDS011;42245;42.058;24.700;2023-12-07T06:48:18;13.30;;;7.40;;
56343;SDS011;42245;42.058;24.700;2023-12-07T06:50:43;17.87;;;8.10;;
56343;SDS011;42245;42.058;24.700;2023-12-07T06:53:09;11.67;;;6.57;;
56343;SDS011;42245;42.058;24.700;2023-12-07T06:55:34;10.47;;;6.17;;
56343;SDS011;42245;42.058;24.700;2023-12-07T06:57:59;9.53;;;6.00;;
56343;SDS011;42245;42.058;24.700;2023-12-07T07:00:25;10.63;;;6.30;;
56343;SDS011;42245;42.058;24.700;2023-12-07T07:02:50;8.70;;;5.77;;
56343;SDS011;42245;42.058;24.700;2023-12-07T07:05:16;11.17;;;6.13;;
56343;SDS011;42245;42.058;24.700;2023-12-07T07:07:41;9.30;;;5.80;;
56343;SDS011;42245;42.058;24.700;2023-12-07T07:10:07;8.73;;;5.87;;
56343;SDS011;42245;42.058;24.700;2023-12-07T07:12:35;9.27;;;6.07;;
56343;SDS011;42245;42.058;24.700;2023-12-07T07:15:00;10.10;;;6.10;;
56343;SDS011;42245;42.058;24.700;2023-12-07T07:17:26;10.10;;;6.70;;
56343;SDS011;42245;42.058;24.700;2023-12-07T07:19:53;16.70;;;8.07;;
56343;SDS011;42245;42.058;24.700;2023-12-07T07:22:20;20.37;;;14.97;;
56343;SDS011;42245;42.058;24.700;2023-12-07T07:24:46;24.15;;;16.67;;
56343;SDS011;42245;42.058;24.700;2023-12-07T07:27:11;22.83;;;14.32;;
56343;SDS011;42245;42.058;24.700;2023-12-07T07:29:36;20.55;;;13.60;;
56343;SDS011;42245;42.058;24.700;2023-12-07T07:32:02;23.58;;;15.02;;
56343;SDS011;42245;42.058;24.700;2023-12-07T07:34:27;18.20;;;11.82;;
56343;SDS011;42245;42.058;24.700;2023-12-07T07:36:53;19.45;;;11.60;;
56343;SDS011;42245;42.058;24.700;2023-12-07T07:39:18;20.17;;;12.60;;
56343;SDS011;42245;42.058;24.700;2023-12-07T07:41:44;27.58;;;12.90;;
56343;SDS011;42245;42.058;24.700;2023-12-07T07:44:09;19.40;;;11.65;;
56343;SDS011;42245;42.058;24.700;2023-12-07T07:46:35;16.15;;;10.10;;
56343;SDS011;42245;42.058;24.700;2023-12-07T07:49:00;17.50;;;9.73;;
56343;SDS011;42245;42.058;24.700;2023-12-07T07:51:26;14.57;;;9.20;;
56343;SDS011;42245;42.058;24.700;2023-12-07T07:53:51;13.70;;;8.73;;
56343;SDS011;42245;42.058;24.700;2023-12-07T07:56:17;14.25;;;9.18;;
56343;SDS011;42245;42.058;24.700;2023-12-07T07:58:43;14.55;;;9.05;;
56343;SDS011;42245;42.058;24.700;2023-12-07T08:01:09;16.17;;;9.30;;
56343;SDS011;42245;42.058;24.700;2023-12-07T08:03:35;16.75;;;11.45;;
56343;SDS011;42245;42.058;24.700;2023-12-07T08:06:00;19.88;;;12.23;;
56343;SDS011;42245;42.058;24.700;2023-12-07T08:08:25;19.27;;;12.55;;
56343;SDS011;42245;42.058;24.700;2023-12-07T08:10:51;16.92;;;12.07;;
56343;SDS011;42245;42.058;24.700;2023-12-07T08:13:17;21.75;;;14.63;;
56343;SDS011;42245;42.058;24.700;2023-12-07T08:15:42;22.95;;;14.25;;
56343;SDS011;42245;42.058;24.700;2023-12-07T08:18:08;24.73;;;16.63;;
56343;SDS011;42245;42.058;24.700;2023-12-07T08:20:34;28.58;;;17.80;;
56343;SDS011;42245;42.058;24.700;2023-12-07T08:23:00;23.08;;;15.68;;
56343;SDS011;42245;42.058;24.700;2023-12-07T08:25:25;21.23;;;15.27;;
56343;SDS011;42245;42.058;24.700;2023-12-07T08:27:50;19.70;;;13.90;;
56343;SDS011;42245;42.058;24.700;2023-12-07T08:30:16;23.40;;;15.00;;
56343;SDS011;42245;42.058;24.700;2023-12-07T08:32:42;23.38;;;15.95;;
56343;SDS011;42245;42.058;24.700;2023-12-07T08:35:07;19.80;;;12.98;;
56343;SDS011;42245;42.058;24.700;2023-12-07T08:37:33;18.75;;;13.05;;
56343;SDS011;42245;42.058;24.700;2023-12-07T08:39:59;30.50;;;21.13;;
56343;SDS011;42245;42.058;24.700;2023-12-07T08:42:24;24.10;;;15.82;;
56343;SDS011;42245;42.058;24.700;2023-12-07T08:44:51;19.10;;;12.13;;
56343;SDS011;42245;42.058;24.700;2023-12-07T08:47:17;26.02;;;15.63;;
56343;SDS011;42245;42.058;24.700;2023-12-07T08:49:44;23.25;;;14.25;;
56343;SDS011;42245;42.058;24.700;2023-12-07T08:52:09;20.52;;;12.90;;
56343;SDS011;42245;42.058;24.700;2023-12-07T08:54:35;16.98;;;11.98;;
56343;SDS011;42245;42.058;24.700;2023-12-07T08:57:01;21.73;;;13.65;;
56343;SDS011;42245;42.058;24.700;2023-12-07T08:59:28;24.77;;;15.60;;
56343;SDS011;42245;42.058;24.700;2023-12-07T09:01:53;25.40;;;16.25;;
56343;SDS011;42245;42.058;24.700;2023-12-07T09:04:19;25.70;;;16.70;;
56343;SDS011;42245;42.058;24.700;2023-12-07T09:06:44;23.70;;;15.20;;
56343;SDS011;42245;42.058;24.700;2023-12-07T09:09:10;23.70;;;16.58;;
56343;SDS011;42245;42.058;24.700;2023-12-07T09:11:36;22.92;;;14.60;;
56343;SDS011;42245;42.058;24.700;2023-12-07T09:14:02;23.45;;;13.98;;
56343;SDS011;42245;42.058;24.700;2023-12-07T09:16:27;22.50;;;15.23;;
56343;SDS011;42245;42.058;24.700;2023-12-07T09:18:53;22.70;;;14.82;;
56343;SDS011;42245;42.058;24.700;2023-12-07T09:21:18;21.95;;;13.90;;
56343;SDS011;42245;42.058;24.700;2023-12-07T09:23:44;21.58;;;14.63;;
56343;SDS011;42245;42.058;24.700;2023-12-07T09:26:10;24.95;;;15.35;;
56343;SDS011;42245;42.058;24.700;2023-12-07T09:28:35;25.75;;;16.10;;
56343;SDS011;42245;42.058;24.700;2023-12-07T09:31:01;25.80;;;15.82;;
56343;SDS011;42245;42.058;24.700;2023-12-07T09:33:26;25.90;;;17.70;;
56343;SDS011;42245;42.058;24.700;2023-12-07T09:35:52;32.83;;;17.98;;
56343;SDS011;42245;42.058;24.700;2023-12-07T09:38:17;50.70;;;29.20;;
56343;SDS011;42245;42.058;24.700;2023-12-07T09:40:43;37.47;;;23.25;;
56343;SDS011;42245;42.058;24.700;2023-12-07T09:43:08;30.02;;;17.23;;
56343;SDS011;42245;42.058;24.700;2023-12-07T09:45:34;22.45;;;15.05;;
56343;SDS011;42245;42.058;24.700;2023-12-07T09:48:00;27.70;;;16.33;;
56343;SDS011;42245;42.058;24.700;2023-12-07T09:50:26;28.40;;;17.67;;
56343;SDS011;42245;42.058;24.700;2023-12-07T09:52:53;28.75;;;17.88;;
56343;SDS011;42245;42.058;24.700;2023-12-07T09:55:22;27.25;;;18.58;;
56343;SDS011;42245;42.058;24.700;2023-12-07T09:57:48;28.42;;;18.65;;
56343;SDS011;42245;42.058;24.700;2023-12-07T10:00:14;32.03;;;20.58;;
56343;SDS011;42245;42.058;24.700;2023-12-07T10:02:41;41.00;;;25.42;;
56343;SDS011;42245;42.058;24.700;2023-12-07T10:05:11;133.10;;;66.60;;
56343;SDS011;42245;42.058;24.700;2023-12-07T10:07:45;54.17;;;31.80;;
56343;SDS011;42245;42.058;24.700;2023-12-07T10:10:14;49.53;;;29.88;;
56343;SDS011;42245;42.058;24.700;2023-12-07T10:12:44;32.15;;;20.63;;
56343;SDS011;42245;42.058;24.700;2023-12-07T10:15:20;38.28;;;24.58;;
56343;SDS011;42245;42.058;24.700;2023-12-07T10:17:48;35.15;;;22.20;;
56343;SDS011;42245;42.058;24.700;2023-12-07T10:20:18;35.55;;;21.10;;
56343;SDS011;42245;42.058;24.700;2023-12-07T10:25:29;32.50;;;21.48;;
56343;SDS011;42245;42.058;24.700;2023-12-07T10:27:55;34.60;;;21.30;;
56343;SDS011;42245;42.058;24.700;2023-12-07T10:30:21;36.70;;;23.08;;
56343;SDS011;42245;42.058;24.700;2023-12-07T10:32:50;36.95;;;22.63;;
56343;SDS011;42245;42.058;24.700;2023-12-07T10:35:16;39.80;;;25.23;;
56343;SDS011;42245;42.058;24.700;2023-12-07T10:37:43;39.03;;;24.85;;
56343;SDS011;42245;42.058;24.700;2023-12-07T10:40:08;39.72;;;24.67;;
56343;SDS011;42245;42.058;24.700;2023-12-07T10:42:34;39.40;;;24.73;;
56343;SDS011;42245;42.058;24.700;2023-12-07T10:45:06;40.17;;;24.52;;
56343;SDS011;42245;42.058;24.700;2023-12-07T10:47:36;41.40;;;23.52;;
56343;SDS011;42245;42.058;24.700;2023-12-07T10:50:07;40.03;;;23.73;;
56343;SDS011;42245;42.058;24.700;2023-12-07T10:52:36;51.22;;;30.33;;
56343;SDS011;42245;42.058;24.700;2023-12-07T10:55:06;54.60;;;31.95;;
56343;SDS011;42245;42.058;24.700;2023-12-07T10:57:33;45.50;;;29.52;;
56343;SDS011;42245;42.058;24.700;2023-12-07T11:00:00;43.50;;;28.08;;
56343;SDS011;42245;42.058;24.700;2023-12-07T11:02:26;44.97;;;26.27;;
56343;SDS011;42245;42.058;24.700;2023-12-07T11:04:56;41.08;;;25.50;;
56343;SDS011;42245;42.058;24.700;2023-12-07T11:07:23;39.10;;;25.02;;
56343;SDS011;42245;42.058;24.700;2023-12-07T11:10:04;37.67;;;25.42;;
56343;SDS011;42245;42.058;24.700;2023-12-07T11:12:45;42.08;;;25.80;;
56343;SDS011;42245;42.058;24.700;2023-12-07T11:15:15;48.25;;;28.48;;
56343;SDS011;42245;42.058;24.700;2023-12-07T11:17:51;47.35;;;30.30;;
56343;SDS011;42245;42.058;24.700;2023-12-07T11:20:42;45.03;;;30.27;;
56343;SDS011;42245;42.058;24.700;2023-12-07T11:23:07;39.42;;;27.13;;
56343;SDS011;42245;42.058;24.700;2023-12-07T11:25:33;46.22;;;27.23;;
56343;SDS011;42245;42.058;24.700;2023-12-07T11:28:00;40.80;;;25.17;;
56343;SDS011;42245;42.058;24.700;2023-12-07T11:30:27;37.78;;;22.92;;
56343;SDS011;42245;42.058;24.700;2023-12-07T11:32:54;44.03;;;26.40;;
56343;SDS011;42245;42.058;24.700;2023-12-07T11:35:20;47.83;;;30.17;;
56343;SDS011;42245;42.058;24.700;2023-12-07T11:40:37;51.13;;;31.70;;
56343;SDS011;42245;42.058;24.700;2023-12-07T11:43:05;50.35;;;31.63;;
56343;SDS011;42245;42.058;24.700;2023-12-07T11:45:41;51.97;;;32.60;;
56343;SDS011;42245;42.058;24.700;2023-12-07T11:48:12;62.80;;;37.45;;
56343;SDS011;42245;42.058;24.700;2023-12-07T11:50:54;49.78;;;30.58;;
56343;SDS011;42245;42.058;24.700;2023-12-07T11:53:23;51.30;;;30.55;;
56343;SDS011;42245;42.058;24.700;2023-12-07T11:55:50;49.45;;;32.78;;
56343;SDS011;42245;42.058;24.700;2023-12-07T11:58:16;51.65;;;30.73;;
56343;SDS011;42245;42.058;24.700;2023-12-07T12:00:43;46.85;;;31.33;;
56343;SDS011;42245;42.058;24.700;2023-12-07T12:03:08;47.47;;;28.90;;
56343;SDS011;42245;42.058;24.700;2023-12-07T12:05:34;44.20;;;27.88;;
56343;SDS011;42245;42.058;24.700;2023-12-07T12:07:59;42.33;;;25.95;;
56343;SDS011;42245;42.058;24.700;2023-12-07T12:10:25;38.65;;;23.52;;
56343;SDS011;42245;42.058;24.700;2023-12-07T12:12:53;40.42;;;24.70;;
56343;SDS011;42245;42.058;24.700;2023-12-07T12:15:20;42.40;;;25.90;;
56343;SDS011;42245;42.058;24.700;2023-12-07T12:17:45;39.63;;;25.27;;
56343;SDS011;42245;42.058;24.700;2023-12-07T12:20:11;41.63;;;25.48;;
56343;SDS011;42245;42.058;24.700;2023-12-07T12:22:42;36.75;;;22.55;;
56343;SDS011;42245;42.058;24.700;2023-12-07T12:25:08;32.45;;;20.55;;
56343;SDS011;42245;42.058;24.700;2023-12-07T12:27:33;25.63;;;17.05;;
56343;SDS011;42245;42.058;24.700;2023-12-07T12:29:59;24.67;;;15.18;;
56343;SDS011;42245;42.058;24.700;2023-12-07T12:32:25;20.48;;;12.75;;
56343;SDS011;42245;42.058;24.700;2023-12-07T12:34:51;16.75;;;10.43;;
56343;SDS011;42245;42.058;24.700;2023-12-07T12:37:17;11.38;;;7.20;;
56343;SDS011;42245;42.058;24.700;2023-12-07T12:39:42;9.70;;;7.13;;
56343;SDS011;42245;42.058;24.700;2023-12-07T12:42:08;9.35;;;6.90;;
56343;SDS011;42245;42.058;24.700;2023-12-07T12:44:36;10.57;;;7.30;;
56343;SDS011;42245;42.058;24.700;2023-12-07T12:47:06;9.48;;;6.72;;
56343;SDS011;42245;42.058;24.700;2023-12-07T12:49:36;10.10;;;7.10;;
56343;SDS011;42245;42.058;24.700;2023-12-07T12:52:02;17.05;;;11.38;;
56343;SDS011;42245;42.058;24.700;2023-12-07T12:54:31;28.10;;;15.13;;
56343;SDS011;42245;42.058;24.700;2023-12-07T12:56:57;27.10;;;16.15;;
56343;SDS011;42245;42.058;24.700;2023-12-07T12:59:23;17.75;;;10.98;;
56343;SDS011;42245;42.058;24.700;2023-12-07T13:01:50;10.73;;;7.43;;
56343;SDS011;42245;42.058;24.700;2023-12-07T13:04:16;10.73;;;7.78;;
56343;SDS011;42245;42.058;24.700;2023-12-07T13:06:41;23.73;;;14.88;;
56343;SDS011;42245;42.058;24.700;2023-12-07T13:09:07;13.90;;;8.38;;
56343;SDS011;42245;42.058;24.700;2023-12-07T13:11:32;20.27;;;13.38;;
56343;SDS011;42245;42.058;24.700;2023-12-07T13:13:58;33.47;;;20.13;;
56343;SDS011;42245;42.058;24.700;2023-12-07T13:16:24;37.75;;;24.77;;
56343;SDS011;42245;42.058;24.700;2023-12-07T13:18:49;41.95;;;23.90;;
56343;SDS011;42245;42.058;24.700;2023-12-07T13:21:15;41.03;;;23.63;;
56343;SDS011;42245;42.058;24.700;2023-12-07T13:23:41;38.85;;;23.05;;
56343;SDS011;42245;42.058;24.700;2023-12-07T13:26:06;45.95;;;23.23;;
56343;SDS011;42245;42.058;24.700;2023-12-07T13:28:32;37.08;;;22.20;;
56343;SDS011;42245;42.058;24.700;2023-12-07T13:30:57;38.67;;;22.30;;
56343;SDS011;42245;42.058;24.700;2023-12-07T13:33:23;47.63;;;28.67;;
56343;SDS011;42245;42.058;24.700;2023-12-07T13:35:49;46.70;;;27.33;;
56343;SDS011;42245;42.058;24.700;2023-12-07T13:38:14;50.65;;;30.17;;
56343;SDS011;42245;42.058;24.700;2023-12-07T13:40:40;36.90;;;23.42;;
56343;SDS011;42245;42.058;24.700;2023-12-07T13:43:06;38.47;;;23.45;;
56343;SDS011;42245;42.058;24.700;2023-12-07T13:45:31;33.95;;;21.75;;
56343;SDS011;42245;42.058;24.700;2023-12-07T13:47:57;35.38;;;20.80;;
56343;SDS011;42245;42.058;24.700;2023-12-07T13:50:23;39.45;;;20.67;;
56343;SDS011;42245;42.058;24.700;2023-12-07T13:52:49;35.85;;;20.90;;
56343;SDS011;42245;42.058;24.700;2023-12-07T13:55:14;37.30;;;21.60;;
56343;SDS011;42245;42.058;24.700;2023-12-07T13:57:40;38.63;;;24.15;;
56343;SDS011;42245;42.058;24.700;2023-12-07T14:00:06;36.40;;;21.08;;
56343;SDS011;42245;42.058;24.700;2023-12-07T14:02:31;43.42;;;22.98;;
56343;SDS011;42245;42.058;24.700;2023-12-07T14:04:58;37.47;;;21.45;;
56343;SDS011;42245;42.058;24.700;2023-12-07T14:07:23;32.92;;;19.73;;
56343;SDS011;42245;42.058;24.700;2023-12-07T14:09:50;33.58;;;19.73;;
56343;SDS011;42245;42.058;24.700;2023-12-07T14:12:16;36.60;;;19.52;;
56343;SDS011;42245;42.058;24.700;2023-12-07T14:14:43;29.77;;;17.73;;
56343;SDS011;42245;42.058;24.700;2023-12-07T14:17:09;26.33;;;16.23;;
56343;SDS011;42245;42.058;24.700;2023-12-07T14:19:38;17.80;;;11.20;;